sensor_id;sensor_type;location;lat;lon;timestamp;P1;durP1;ratioP1;P2;durP2;ratioP2
37781;SDS011;23621;50.878;4.584;2023-05-01T00:00:25;3.67;;;3.38;;
37781;SDS011;23621;50.878;4.584;2023-05-01T00:03:12;3.70;;;3.40;;
37781;SDS011;23621;50.878;4.584;2023-05-01T00:06:00;3.50;;;2.90;;
37781;SDS011;23621;50.878;4.584;2023-05-01T00:08:50;3.78;;;3.00;;
37781;SDS011;23621;50.878;4.584;2023-05-01T00:11:37;3.22;;;2.95;;
37781;SDS011;23621;50.878;4.584;2023-05-01T00:14:24;3.42;;;3.10;;
37781;SDS011;23621;50.878;4.584;2023-05-01T00:17:12;3.53;;;3.20;;
37781;SDS011;23621;50.878;4.584;2023-05-01T00:19:59;4.38;;;3.03;;
37781;SDS011;23621;50.878;4.584;2023-05-01T00:22:47;3.50;;;3.20;;
37781;SDS011;23621;50.878;4.584;2023-05-01T00:25:34;3.88;;;3.22;;
37781;SDS011;23621;50.878;4.584;2023-05-01T00:28:21;3.50;;;3.20;;
37781;SDS011;23621;50.878;4.584;2023-05-01T00:31:08;3.50;;;3.20;;
37781;SDS011;23621;50.878;4.584;2023-05-01T00:33:56;3.70;;;3.40;;
37781;SDS011;23621;50.878;4.584;2023-05-01T00:36:43;3.55;;;3.30;;
37781;SDS011;23621;50.878;4.584;2023-05-01T00:39:30;3.30;;;3.05;;
37781;SDS011;23621;50.878;4.584;2023-05-01T00:42:17;3.40;;;3.10;;
37781;SDS011;23621;50.878;4.584;2023-05-01T00:45:05;4.15;;;3.75;;
37781;SDS011;23621;50.878;4.584;2023-05-01T00:47:53;3.72;;;3.45;;
37781;SDS011;23621;50.878;4.584;2023-05-01T00:50:40;4.00;;;3.60;;
37781;SDS011;23621;50.878;4.584;2023-05-01T00:53:29;4.13;;;3.60;;
37781;SDS011;23621;50.878;4.584;2023-05-01T00:56:18;4.35;;;3.30;;
37781;SDS011;23621;50.878;4.584;2023-05-01T00:59:06;3.80;;;3.50;;
37781;SDS011;23621;50.878;4.584;2023-05-01T01:01:54;3.85;;;3.55;;
37781;SDS011;23621;50.878;4.584;2023-05-01T01:04:45;4.38;;;3.67;;
37781;SDS011;23621;50.878;4.584;2023-05-01T01:14:53;3.85;;;3.55;;
37781;SDS011;23621;50.878;4.584;2023-05-01T01:17:12;4.47;;;3.60;;
37781;SDS011;23621;50.878;4.584;2023-05-01T01:35:37;3.92;;;3.60;;
37781;SDS011;23621;50.878;4.584;2023-05-01T01:38:36;3.90;;;3.60;;
37781;SDS011;23621;50.878;4.584;2023-05-01T01:41:32;4.75;;;3.80;;
37781;SDS011;23621;50.878;4.584;2023-05-01T01:44:29;4.65;;;3.47;;
37781;SDS011;23621;50.878;4.584;2023-05-01T01:47:26;3.60;;;3.30;;
37781;SDS011;23621;50.878;4.584;2023-05-01T01:50:17;3.70;;;3.40;;
37781;SDS011;23621;50.878;4.584;2023-05-01T01:53:08;3.95;;;3.65;;
37781;SDS011;23621;50.878;4.584;2023-05-01T01:56:00;4.68;;;4.03;;
37781;SDS011;23621;50.878;4.584;2023-05-01T01:58:51;4.20;;;3.90;;
37781;SDS011;23621;50.878;4.584;2023-05-01T02:01:39;4.50;;;3.58;;
37781;SDS011;23621;50.878;4.584;2023-05-01T02:04:28;4.57;;;3.38;;
37781;SDS011;23621;50.878;4.584;2023-05-01T02:07:17;4.30;;;3.90;;
37781;SDS011;23621;50.878;4.584;2023-05-01T02:10:10;4.22;;;3.90;;
37781;SDS011;23621;50.878;4.584;2023-05-01T02:12:59;4.57;;;4.18;;
37781;SDS011;23621;50.878;4.584;2023-05-01T02:15:48;4.22;;;3.92;;
37781;SDS011;23621;50.878;4.584;2023-05-01T02:18:36;5.20;;;3.85;;
37781;SDS011;23621;50.878;4.584;2023-05-01T02:21:25;4.13;;;3.72;;
37781;SDS011;23621;50.878;4.584;2023-05-01T02:24:13;4.45;;;3.63;;
37781;SDS011;23621;50.878;4.584;2023-05-01T02:27:13;4.60;;;4.20;;
37781;SDS011;23621;50.878;4.584;2023-05-01T02:30:05;3.83;;;3.53;;
37781;SDS011;23621;50.878;4.584;2023-05-01T02:32:54;5.20;;;4.05;;
37781;SDS011;23621;50.878;4.584;2023-05-01T02:35:43;6.15;;;4.07;;
37781;SDS011;23621;50.878;4.584;2023-05-01T02:38:33;4.03;;;3.70;;
37781;SDS011;23621;50.878;4.584;2023-05-01T02:41:21;6.32;;;3.90;;
37781;SDS011;23621;50.878;4.584;2023-05-01T02:44:09;4.88;;;4.18;;
37781;SDS011;23621;50.878;4.584;2023-05-01T02:46:58;4.55;;;4.15;;
37781;SDS011;23621;50.878;4.584;2023-05-01T02:49:48;4.45;;;4.05;;
37781;SDS011;23621;50.878;4.584;2023-05-01T02:52:37;4.53;;;4.13;;
37781;SDS011;23621;50.878;4.584;2023-05-01T02:55:25;4.72;;;4.22;;
37781;SDS011;23621;50.878;4.584;2023-05-01T02:58:18;4.38;;;3.97;;
37781;SDS011;23621;50.878;4.584;2023-05-01T03:01:06;5.80;;;4.30;;
37781;SDS011;23621;50.878;4.584;2023-05-01T03:03:53;4.90;;;4.40;;
37781;SDS011;23621;50.878;4.584;2023-05-01T03:06:40;4.47;;;4.07;;
37781;SDS011;23621;50.878;4.584;2023-05-01T03:09:30;5.05;;;4.15;;
37781;SDS011;23621;50.878;4.584;2023-05-01T03:12:17;4.05;;;3.72;;
37781;SDS011;23621;50.878;4.584;2023-05-01T03:15:05;4.60;;;4.20;;
37781;SDS011;23621;50.878;4.584;2023-05-01T03:17:52;4.50;;;4.10;;
37781;SDS011;23621;50.878;4.584;2023-05-01T03:20:39;4.60;;;4.20;;
37781;SDS011;23621;50.878;4.584;2023-05-01T03:23:36;4.47;;;4.07;;
37781;SDS011;23621;50.878;4.584;2023-05-01T03:26:23;4.60;;;3.80;;
37781;SDS011;23621;50.878;4.584;2023-05-01T03:29:11;4.28;;;3.97;;
37781;SDS011;23621;50.878;4.584;2023-05-01T03:31:59;4.05;;;3.72;;
37781;SDS011;23621;50.878;4.584;2023-05-01T03:34:46;4.68;;;4.28;;
37781;SDS011;23621;50.878;4.584;2023-05-01T03:37:34;5.03;;;4.63;;
37781;SDS011;23621;50.878;4.584;2023-05-01T03:40:21;4.78;;;4.30;;
37781;SDS011;23621;50.878;4.584;2023-05-01T03:43:09;4.72;;;4.32;;
37781;SDS011;23621;50.878;4.584;2023-05-01T03:45:56;4.40;;;3.78;;
37781;SDS011;23621;50.878;4.584;2023-05-01T03:48:44;4.43;;;4.03;;
37781;SDS011;23621;50.878;4.584;2023-05-01T03:51:31;4.72;;;4.32;;
37781;SDS011;23621;50.878;4.584;2023-05-01T03:54:18;5.28;;;4.20;;
37781;SDS011;23621;50.878;4.584;2023-05-01T03:57:05;4.60;;;4.22;;
37781;SDS011;23621;50.878;4.584;2023-05-01T03:59:53;5.00;;;3.88;;
37781;SDS011;23621;50.878;4.584;2023-05-01T04:02:40;4.18;;;3.80;;
37781;SDS011;23621;50.878;4.584;2023-05-01T04:05:28;4.53;;;4.07;;
37781;SDS011;23621;50.878;4.584;2023-05-01T04:08:16;4.40;;;4.10;;
37781;SDS011;23621;50.878;4.584;2023-05-01T04:11:03;4.75;;;4.35;;
37781;SDS011;23621;50.878;4.584;2023-05-01T04:13:50;4.35;;;3.95;;
37781;SDS011;23621;50.878;4.584;2023-05-01T04:16:37;4.18;;;3.78;;
37781;SDS011;23621;50.878;4.584;2023-05-01T04:19:25;5.05;;;4.65;;
37781;SDS011;23621;50.878;4.584;2023-05-01T04:22:12;4.70;;;4.30;;
37781;SDS011;23621;50.878;4.584;2023-05-01T04:24:59;4.50;;;4.07;;
37781;SDS011;23621;50.878;4.584;2023-05-01T04:27:46;5.97;;;4.40;;
37781;SDS011;23621;50.878;4.584;2023-05-01T04:30:33;4.60;;;4.20;;
37781;SDS011;23621;50.878;4.584;2023-05-01T04:33:22;4.80;;;4.40;;
37781;SDS011;23621;50.878;4.584;2023-05-01T04:36:09;4.82;;;4.43;;
37781;SDS011;23621;50.878;4.584;2023-05-01T04:38:57;5.00;;;4.50;;
37781;SDS011;23621;50.878;4.584;2023-05-01T04:41:44;4.65;;;4.25;;
37781;SDS011;23621;50.878;4.584;2023-05-01T04:44:31;4.90;;;4.50;;
37781;SDS011;23621;50.878;4.584;2023-05-01T04:47:21;6.13;;;4.55;;
37781;SDS011;23621;50.878;4.584;2023-05-01T04:50:08;5.35;;;4.43;;
37781;SDS011;23621;50.878;4.584;2023-05-01T04:52:56;4.95;;;4.50;;
37781;SDS011;23621;50.878;4.584;2023-05-01T04:55:44;5.35;;;4.57;;
37781;SDS011;23621;50.878;4.584;2023-05-01T04:58:32;5.05;;;4.65;;
37781;SDS011;23621;50.878;4.584;2023-05-01T05:01:19;4.93;;;4.47;;
37781;SDS011;23621;50.878;4.584;2023-05-01T05:04:06;5.78;;;4.57;;
37781;SDS011;23621;50.878;4.584;2023-05-01T05:06:53;4.82;;;4.43;;
37781;SDS011;23621;50.878;4.584;2023-05-01T05:09:41;4.50;;;4.13;;
37781;SDS011;23621;50.878;4.584;2023-05-01T05:12:28;5.10;;;4.60;;
37781;SDS011;23621;50.878;4.584;2023-05-01T05:15:15;6.85;;;5.07;;
37781;SDS011;23621;50.878;4.584;2023-05-01T05:18:02;5.00;;;4.50;;
37781;SDS011;23621;50.878;4.584;2023-05-01T05:20:50;5.88;;;5.00;;
37781;SDS011;23621;50.878;4.584;2023-05-01T05:23:37;7.93;;;4.97;;
37781;SDS011;23621;50.878;4.584;2023-05-01T05:26:24;5.55;;;5.00;;
37781;SDS011;23621;50.878;4.584;2023-05-01T05:29:12;6.65;;;4.70;;
37781;SDS011;23621;50.878;4.584;2023-05-01T05:32:00;5.07;;;4.57;;
37781;SDS011;23621;50.878;4.584;2023-05-01T05:34:47;5.35;;;4.55;;
37781;SDS011;23621;50.878;4.584;2023-05-01T05:37:34;4.88;;;4.47;;
37781;SDS011;23621;50.878;4.584;2023-05-01T05:40:21;5.22;;;4.72;;
37781;SDS011;23621;50.878;4.584;2023-05-01T05:43:08;6.18;;;4.70;;
37781;SDS011;23621;50.878;4.584;2023-05-01T05:45:59;4.70;;;4.30;;
37781;SDS011;23621;50.878;4.584;2023-05-01T05:48:46;5.50;;;4.50;;
37781;SDS011;23621;50.878;4.584;2023-05-01T05:51:33;5.13;;;4.65;;
37781;SDS011;23621;50.878;4.584;2023-05-01T05:54:21;5.35;;;4.70;;
37781;SDS011;23621;50.878;4.584;2023-05-01T05:57:08;5.57;;;4.32;;
37781;SDS011;23621;50.878;4.584;2023-05-01T05:59:55;6.28;;;5.72;;
37781;SDS011;23621;50.878;4.584;2023-05-01T06:02:43;11.07;;;6.00;;
37781;SDS011;23621;50.878;4.584;2023-05-01T06:05:30;6.18;;;4.90;;
37781;SDS011;23621;50.878;4.584;2023-05-01T06:08:18;4.95;;;4.55;;
37781;SDS011;23621;50.878;4.584;2023-05-01T06:11:07;5.93;;;5.43;;
37781;SDS011;23621;50.878;4.584;2023-05-01T06:13:54;5.65;;;5.15;;
37781;SDS011;23621;50.878;4.584;2023-05-01T06:16:42;5.25;;;4.82;;
37781;SDS011;23621;50.878;4.584;2023-05-01T06:19:30;5.70;;;5.10;;
37781;SDS011;23621;50.878;4.584;2023-05-01T06:22:20;6.70;;;5.15;;
37781;SDS011;23621;50.878;4.584;2023-05-01T06:25:07;5.70;;;5.20;;
37781;SDS011;23621;50.878;4.584;2023-05-01T06:27:55;6.35;;;5.05;;
37781;SDS011;23621;50.878;4.584;2023-05-01T06:30:42;6.07;;;5.53;;
37781;SDS011;23621;50.878;4.584;2023-05-01T06:33:29;5.45;;;5.03;;
37781;SDS011;23621;50.878;4.584;2023-05-01T06:36:16;8.68;;;5.80;;
37781;SDS011;23621;50.878;4.584;2023-05-01T06:39:04;5.50;;;5.00;;
37781;SDS011;23621;50.878;4.584;2023-05-01T06:41:51;7.55;;;5.30;;
37781;SDS011;23621;50.878;4.584;2023-05-01T06:44:38;5.97;;;5.43;;
37781;SDS011;23621;50.878;4.584;2023-05-01T06:47:25;5.93;;;5.32;;
37781;SDS011;23621;50.878;4.584;2023-05-01T06:50:12;6.10;;;5.57;;
37781;SDS011;23621;50.878;4.584;2023-05-01T06:53:00;6.53;;;5.20;;
37781;SDS011;23621;50.878;4.584;2023-05-01T06:55:48;5.88;;;5.28;;
37781;SDS011;23621;50.878;4.584;2023-05-01T06:58:35;6.00;;;5.47;;
37781;SDS011;23621;50.878;4.584;2023-05-01T07:01:22;6.40;;;5.80;;
37781;SDS011;23621;50.878;4.584;2023-05-01T07:04:10;5.60;;;5.10;;
37781;SDS011;23621;50.878;4.584;2023-05-01T07:06:57;7.65;;;5.70;;
37781;SDS011;23621;50.878;4.584;2023-05-01T07:09:44;5.80;;;5.30;;
37781;SDS011;23621;50.878;4.584;2023-05-01T07:12:31;6.45;;;5.80;;
37781;SDS011;23621;50.878;4.584;2023-05-01T07:15:19;5.80;;;5.30;;
37781;SDS011;23621;50.878;4.584;2023-05-01T07:18:06;6.40;;;5.75;;
37781;SDS011;23621;50.878;4.584;2023-05-01T07:20:55;6.45;;;5.95;;
37781;SDS011;23621;50.878;4.584;2023-05-01T07:23:42;7.38;;;6.68;;
37781;SDS011;23621;50.878;4.584;2023-05-01T07:26:30;7.60;;;6.90;;
37781;SDS011;23621;50.878;4.584;2023-05-01T07:29:17;9.05;;;8.32;;
37781;SDS011;23621;50.878;4.584;2023-05-01T07:32:04;10.85;;;9.85;;
37781;SDS011;23621;50.878;4.584;2023-05-01T07:34:53;12.73;;;11.52;;
37781;SDS011;23621;50.878;4.584;2023-05-01T07:37:40;13.07;;;11.88;;
37781;SDS011;23621;50.878;4.584;2023-05-01T07:40:27;14.52;;;13.18;;
37781;SDS011;23621;50.878;4.584;2023-05-01T07:43:14;16.13;;;14.50;;
37781;SDS011;23621;50.878;4.584;2023-05-01T07:46:02;15.68;;;14.18;;
37781;SDS011;23621;50.878;4.584;2023-05-01T07:48:49;18.17;;;16.40;;
37781;SDS011;23621;50.878;4.584;2023-05-01T07:51:37;17.55;;;15.65;;
37781;SDS011;23621;50.878;4.584;2023-05-01T07:54:24;18.55;;;16.85;;
37781;SDS011;23621;50.878;4.584;2023-05-01T07:57:11;18.73;;;16.92;;
37781;SDS011;23621;50.878;4.584;2023-05-01T07:59:58;17.80;;;16.10;;
37781;SDS011;23621;50.878;4.584;2023-05-01T08:02:46;19.73;;;17.67;;
37781;SDS011;23621;50.878;4.584;2023-05-01T08:05:33;19.15;;;17.10;;
37781;SDS011;23621;50.878;4.584;2023-05-01T08:08:21;19.52;;;17.48;;
37781;SDS011;23621;50.878;4.584;2023-05-01T08:11:08;19.58;;;17.58;;
37781;SDS011;23621;50.878;4.584;2023-05-01T08:13:55;19.88;;;17.80;;
37781;SDS011;23621;50.878;4.584;2023-05-01T08:16:43;21.08;;;18.70;;
37781;SDS011;23621;50.878;4.584;2023-05-01T08:19:30;21.30;;;18.40;;
37781;SDS011;23621;50.878;4.584;2023-05-01T08:22:17;21.88;;;19.52;;
37781;SDS011;23621;50.878;4.584;2023-05-01T08:25:05;24.67;;;20.60;;
37781;SDS011;23621;50.878;4.584;2023-05-01T08:27:53;24.17;;;21.15;;
37781;SDS011;23621;50.878;4.584;2023-05-01T08:30:40;22.02;;;18.77;;
37781;SDS011;23621;50.878;4.584;2023-05-01T08:33:28;20.88;;;18.80;;
37781;SDS011;23621;50.878;4.584;2023-05-01T08:36:15;22.67;;;20.23;;
37781;SDS011;23621;50.878;4.584;2023-05-01T08:39:03;23.40;;;20.33;;
37781;SDS011;23621;50.878;4.584;2023-05-01T08:41:51;24.67;;;21.98;;
37781;SDS011;23621;50.878;4.584;2023-05-01T08:44:39;24.40;;;21.27;;
37781;SDS011;23621;50.878;4.584;2023-05-01T08:47:27;22.40;;;19.73;;
37781;SDS011;23621;50.878;4.584;2023-05-01T08:50:16;24.10;;;21.50;;
37781;SDS011;23621;50.878;4.584;2023-05-01T08:53:03;25.20;;;22.50;;
37781;SDS011;23621;50.878;4.584;2023-05-01T08:55:53;25.15;;;21.85;;
37781;SDS011;23621;50.878;4.584;2023-05-01T08:58:42;26.98;;;24.08;;
37781;SDS011;23621;50.878;4.584;2023-05-01T09:01:33;29.27;;;25.13;;
37781;SDS011;23621;50.878;4.584;2023-05-01T09:04:21;29.80;;;25.38;;
37781;SDS011;23621;50.878;4.584;2023-05-01T09:07:08;27.52;;;23.80;;
37781;SDS011;23621;50.878;4.584;2023-05-01T09:09:56;30.52;;;26.27;;
37781;SDS011;23621;50.878;4.584;2023-05-01T09:12:45;28.85;;;24.02;;
37781;SDS011;23621;50.878;4.584;2023-05-01T09:15:34;31.25;;;25.52;;
37781;SDS011;23621;50.878;4.584;2023-05-01T09:18:22;27.95;;;24.33;;
37781;SDS011;23621;50.878;4.584;2023-05-01T09:21:09;31.67;;;25.52;;
37781;SDS011;23621;50.878;4.584;2023-05-01T09:23:57;34.28;;;27.33;;
37781;SDS011;23621;50.878;4.584;2023-05-01T09:26:45;32.83;;;26.98;;
37781;SDS011;23621;50.878;4.584;2023-05-01T09:29:37;35.63;;;28.70;;
37781;SDS011;23621;50.878;4.584;2023-05-01T09:32:26;35.25;;;29.85;;
37781;SDS011;23621;50.878;4.584;2023-05-01T09:35:14;35.10;;;29.30;;
37781;SDS011;23621;50.878;4.584;2023-05-01T09:38:03;32.70;;;27.55;;
37781;SDS011;23621;50.878;4.584;2023-05-01T09:40:55;36.83;;;29.30;;
37781;SDS011;23621;50.878;4.584;2023-05-01T09:43:53;33.50;;;28.08;;
37781;SDS011;23621;50.878;4.584;2023-05-01T09:46:41;36.08;;;29.20;;
37781;SDS011;23621;50.878;4.584;2023-05-01T09:49:42;36.15;;;28.08;;
37781;SDS011;23621;50.878;4.584;2023-05-01T09:52:32;33.55;;;28.35;;
37781;SDS011;23621;50.878;4.584;2023-05-01T09:55:20;35.08;;;29.38;;
37781;SDS011;23621;50.878;4.584;2023-05-01T09:58:25;33.80;;;28.17;;
37781;SDS011;23621;50.878;4.584;2023-05-01T10:01:13;36.00;;;28.77;;
37781;SDS011;23621;50.878;4.584;2023-05-01T10:04:02;34.28;;;28.25;;
37781;SDS011;23621;50.878;4.584;2023-05-01T10:06:49;36.13;;;29.52;;
37781;SDS011;23621;50.878;4.584;2023-05-01T10:09:37;33.75;;;29.15;;
37781;SDS011;23621;50.878;4.584;2023-05-01T10:12:25;36.72;;;29.75;;
37781;SDS011;23621;50.878;4.584;2023-05-01T10:15:13;33.03;;;27.40;;
37781;SDS011;23621;50.878;4.584;2023-05-01T10:18:11;32.05;;;26.58;;
37781;SDS011;23621;50.878;4.584;2023-05-01T10:21:01;32.95;;;28.85;;
37781;SDS011;23621;50.878;4.584;2023-05-01T10:23:50;38.78;;;29.60;;
37781;SDS011;23621;50.878;4.584;2023-05-01T10:26:38;34.38;;;28.00;;
37781;SDS011;23621;50.878;4.584;2023-05-01T10:29:26;36.25;;;28.88;;
37781;SDS011;23621;50.878;4.584;2023-05-01T10:32:15;36.38;;;28.63;;
37781;SDS011;23621;50.878;4.584;2023-05-01T10:35:12;38.47;;;30.33;;
37781;SDS011;23621;50.878;4.584;2023-05-01T10:38:05;38.20;;;29.92;;
37781;SDS011;23621;50.878;4.584;2023-05-01T10:40:55;40.95;;;30.77;;
37781;SDS011;23621;50.878;4.584;2023-05-01T10:43:42;40.50;;;29.55;;
37781;SDS011;23621;50.878;4.584;2023-05-01T10:46:30;37.38;;;30.42;;
37781;SDS011;23621;50.878;4.584;2023-05-01T10:49:17;42.30;;;30.73;;
37781;SDS011;23621;50.878;4.584;2023-05-01T10:52:05;37.10;;;28.80;;
37781;SDS011;23621;50.878;4.584;2023-05-01T10:54:52;32.75;;;26.45;;
37781;SDS011;23621;50.878;4.584;2023-05-01T10:57:40;34.67;;;27.33;;
37781;SDS011;23621;50.878;4.584;2023-05-01T11:00:29;33.30;;;25.98;;
37781;SDS011;23621;50.878;4.584;2023-05-01T11:06:07;31.65;;;26.13;;
37781;SDS011;23621;50.878;4.584;2023-05-01T11:08:55;32.10;;;25.85;;
37781;SDS011;23621;50.878;4.584;2023-05-01T11:23:16;33.10;;;27.00;;
37781;SDS011;23621;50.878;4.584;2023-05-01T11:26:03;33.22;;;27.30;;
37781;SDS011;23621;50.878;4.584;2023-05-01T11:28:52;32.13;;;27.95;;
37781;SDS011;23621;50.878;4.584;2023-05-01T11:31:41;32.90;;;26.88;;
37781;SDS011;23621;50.878;4.584;2023-05-01T11:34:34;34.00;;;28.30;;
37781;SDS011;23621;50.878;4.584;2023-05-01T11:37:41;34.92;;;27.75;;
37781;SDS011;23621;50.878;4.584;2023-05-01T11:40:30;38.38;;;30.38;;
37781;SDS011;23621;50.878;4.584;2023-05-01T11:43:19;39.17;;;29.90;;
37781;SDS011;23621;50.878;4.584;2023-05-01T11:46:07;36.70;;;29.30;;
37781;SDS011;23621;50.878;4.584;2023-05-01T11:48:55;36.85;;;28.58;;
37781;SDS011;23621;50.878;4.584;2023-05-01T11:51:43;36.10;;;29.08;;
37781;SDS011;23621;50.878;4.584;2023-05-01T11:54:30;35.53;;;28.17;;
37781;SDS011;23621;50.878;4.584;2023-05-01T11:57:17;39.63;;;31.00;;
37781;SDS011;23621;50.878;4.584;2023-05-01T12:00:05;37.17;;;28.73;;
37781;SDS011;23621;50.878;4.584;2023-05-01T12:03:00;38.33;;;29.20;;
37781;SDS011;23621;50.878;4.584;2023-05-01T12:05:58;32.58;;;25.33;;
37781;SDS011;23621;50.878;4.584;2023-05-01T12:08:48;32.58;;;25.17;;
37781;SDS011;23621;50.878;4.584;2023-05-01T12:11:38;31.58;;;24.88;;
37781;SDS011;23621;50.878;4.584;2023-05-01T12:14:26;30.70;;;24.10;;
37781;SDS011;23621;50.878;4.584;2023-05-01T12:17:13;29.25;;;24.33;;
37781;SDS011;23621;50.878;4.584;2023-05-01T12:20:01;31.15;;;25.40;;
37781;SDS011;23621;50.878;4.584;2023-05-01T12:22:50;32.22;;;25.98;;
37781;SDS011;23621;50.878;4.584;2023-05-01T12:25:38;32.72;;;26.67;;
37781;SDS011;23621;50.878;4.584;2023-05-01T12:28:26;32.33;;;26.83;;
37781;SDS011;23621;50.878;4.584;2023-05-01T12:31:13;30.08;;;25.17;;
37781;SDS011;23621;50.878;4.584;2023-05-01T12:36:52;16.88;;;14.52;;
37781;SDS011;23621;50.878;4.584;2023-05-01T12:39:41;15.32;;;13.80;;
37781;SDS011;23621;50.878;4.584;2023-05-01T12:42:30;15.73;;;14.00;;
37781;SDS011;23621;50.878;4.584;2023-05-01T12:45:18;14.00;;;12.70;;
37781;SDS011;23621;50.878;4.584;2023-05-01T12:48:08;15.18;;;13.65;;
37781;SDS011;23621;50.878;4.584;2023-05-01T12:51:00;15.27;;;13.80;;
37781;SDS011;23621;50.878;4.584;2023-05-01T12:53:47;13.88;;;12.57;;
37781;SDS011;23621;50.878;4.584;2023-05-01T12:56:35;17.17;;;15.20;;
37781;SDS011;23621;50.878;4.584;2023-05-01T12:59:25;15.82;;;14.30;;
37781;SDS011;23621;50.878;4.584;2023-05-01T13:02:13;15.00;;;13.40;;
37781;SDS011;23621;50.878;4.584;2023-05-01T13:05:06;16.25;;;14.65;;
37781;SDS011;23621;50.878;4.584;2023-05-01T13:07:55;14.85;;;13.35;;
37781;SDS011;23621;50.878;4.584;2023-05-01T13:10:42;14.90;;;13.40;;
37781;SDS011;23621;50.878;4.584;2023-05-01T13:13:30;14.45;;;12.95;;
37781;SDS011;23621;50.878;4.584;2023-05-01T13:16:19;14.55;;;12.88;;
37781;SDS011;23621;50.878;4.584;2023-05-01T13:19:08;16.88;;;13.10;;
37781;SDS011;23621;50.878;4.584;2023-05-01T13:21:56;14.48;;;12.98;;
37781;SDS011;23621;50.878;4.584;2023-05-01T13:24:43;14.95;;;13.55;;
37781;SDS011;23621;50.878;4.584;2023-05-01T13:27:30;16.63;;;13.45;;
37781;SDS011;23621;50.878;4.584;2023-05-01T13:30:18;15.30;;;13.70;;
37781;SDS011;23621;50.878;4.584;2023-05-01T13:33:09;15.57;;;13.13;;
37781;SDS011;23621;50.878;4.584;2023-05-01T13:35:56;15.73;;;13.65;;
37781;SDS011;23621;50.878;4.584;2023-05-01T13:38:45;14.27;;;12.88;;
37781;SDS011;23621;50.878;4.584;2023-05-01T13:41:35;15.18;;;13.63;;
37781;SDS011;23621;50.878;4.584;2023-05-01T13:44:27;16.05;;;14.43;;
37781;SDS011;23621;50.878;4.584;2023-05-01T13:47:15;18.48;;;15.63;;
37781;SDS011;23621;50.878;4.584;2023-05-01T13:50:03;19.75;;;15.30;;
37781;SDS011;23621;50.878;4.584;2023-05-01T13:52:54;16.95;;;15.15;;
37781;SDS011;23621;50.878;4.584;2023-05-01T13:55:42;16.52;;;14.82;;
37781;SDS011;23621;50.878;4.584;2023-05-01T13:58:29;16.20;;;14.60;;
37781;SDS011;23621;50.878;4.584;2023-05-01T14:01:18;16.17;;;14.48;;
37781;SDS011;23621;50.878;4.584;2023-05-01T14:04:08;16.80;;;14.73;;
37781;SDS011;23621;50.878;4.584;2023-05-01T14:06:58;18.90;;;14.93;;
37781;SDS011;23621;50.878;4.584;2023-05-01T14:09:51;34.90;;;16.83;;
37781;SDS011;23621;50.878;4.584;2023-05-01T14:12:42;15.45;;;13.85;;
37781;SDS011;23621;50.878;4.584;2023-05-01T14:15:34;16.00;;;14.45;;
37781;SDS011;23621;50.878;4.584;2023-05-01T14:18:22;17.33;;;15.55;;
37781;SDS011;23621;50.878;4.584;2023-05-01T14:21:09;16.80;;;15.10;;
37781;SDS011;23621;50.878;4.584;2023-05-01T14:23:56;15.50;;;13.90;;
37781;SDS011;23621;50.878;4.584;2023-05-01T14:26:44;15.77;;;14.18;;
37781;SDS011;23621;50.878;4.584;2023-05-01T14:29:34;16.13;;;14.13;;
37781;SDS011;23621;50.878;4.584;2023-05-01T14:32:27;15.70;;;14.15;;
37781;SDS011;23621;50.878;4.584;2023-05-01T14:35:15;15.77;;;14.05;;
37781;SDS011;23621;50.878;4.584;2023-05-01T14:38:06;14.77;;;13.20;;
37781;SDS011;23621;50.878;4.584;2023-05-01T14:40:55;15.77;;;14.18;;
37781;SDS011;23621;50.878;4.584;2023-05-01T14:43:43;15.07;;;13.57;;
37781;SDS011;23621;50.878;4.584;2023-05-01T14:46:31;14.02;;;12.63;;
37781;SDS011;23621;50.878;4.584;2023-05-01T14:49:20;12.30;;;11.10;;
37781;SDS011;23621;50.878;4.584;2023-05-01T14:52:12;13.27;;;11.45;;
37781;SDS011;23621;50.878;4.584;2023-05-01T14:55:05;11.70;;;10.50;;
37781;SDS011;23621;50.878;4.584;2023-05-01T14:57:53;11.98;;;10.77;;
37781;SDS011;23621;50.878;4.584;2023-05-01T15:00:41;13.68;;;12.38;;
37781;SDS011;23621;50.878;4.584;2023-05-01T15:03:28;13.23;;;11.60;;
37781;SDS011;23621;50.878;4.584;2023-05-01T15:06:16;13.27;;;11.88;;
37781;SDS011;23621;50.878;4.584;2023-05-01T15:09:03;15.32;;;13.48;;
37781;SDS011;23621;50.878;4.584;2023-05-01T15:11:50;13.27;;;11.73;;
37781;SDS011;23621;50.878;4.584;2023-05-01T15:14:38;14.48;;;13.07;;
37781;SDS011;23621;50.878;4.584;2023-05-01T15:17:25;15.93;;;14.23;;
37781;SDS011;23621;50.878;4.584;2023-05-01T15:20:15;17.70;;;15.80;;
37781;SDS011;23621;50.878;4.584;2023-05-01T15:23:02;13.88;;;12.48;;
37781;SDS011;23621;50.878;4.584;2023-05-01T15:25:49;14.25;;;11.63;;
37781;SDS011;23621;50.878;4.584;2023-05-01T15:28:37;12.18;;;10.98;;
37781;SDS011;23621;50.878;4.584;2023-05-01T15:31:24;12.63;;;10.82;;
37781;SDS011;23621;50.878;4.584;2023-05-01T15:34:11;11.68;;;10.40;;
37781;SDS011;23621;50.878;4.584;2023-05-01T15:36:58;14.10;;;11.57;;
37781;SDS011;23621;50.878;4.584;2023-05-01T15:39:46;12.45;;;11.15;;
37781;SDS011;23621;50.878;4.584;2023-05-01T15:42:33;11.75;;;10.52;;
37781;SDS011;23621;50.878;4.584;2023-05-01T15:45:20;12.18;;;10.93;;
37781;SDS011;23621;50.878;4.584;2023-05-01T15:48:08;12.77;;;11.50;;
37781;SDS011;23621;50.878;4.584;2023-05-01T15:50:55;11.07;;;9.98;;
37781;SDS011;23621;50.878;4.584;2023-05-01T15:53:42;13.70;;;10.70;;
37781;SDS011;23621;50.878;4.584;2023-05-01T15:56:32;12.07;;;10.88;;
37781;SDS011;23621;50.878;4.584;2023-05-01T15:59:22;13.05;;;10.07;;
37781;SDS011;23621;50.878;4.584;2023-05-01T16:02:10;11.88;;;10.63;;
37781;SDS011;23621;50.878;4.584;2023-05-01T16:04:57;14.43;;;12.30;;
37781;SDS011;23621;50.878;4.584;2023-05-01T16:07:45;14.32;;;12.30;;
37781;SDS011;23621;50.878;4.584;2023-05-01T16:10:35;14.07;;;12.68;;
37781;SDS011;23621;50.878;4.584;2023-05-01T16:13:22;14.30;;;12.60;;
37781;SDS011;23621;50.878;4.584;2023-05-01T16:16:10;14.55;;;13.10;;
37781;SDS011;23621;50.878;4.584;2023-05-01T16:19:00;15.25;;;12.02;;
37781;SDS011;23621;50.878;4.584;2023-05-01T16:21:47;12.80;;;11.50;;
37781;SDS011;23621;50.878;4.584;2023-05-01T16:24:34;13.75;;;11.82;;
37781;SDS011;23621;50.878;4.584;2023-05-01T16:27:22;14.45;;;12.18;;
37781;SDS011;23621;50.878;4.584;2023-05-01T16:30:09;12.25;;;10.98;;
37781;SDS011;23621;50.878;4.584;2023-05-01T16:33:00;11.50;;;10.38;;
37781;SDS011;23621;50.878;4.584;2023-05-01T16:35:48;12.35;;;11.05;;
37781;SDS011;23621;50.878;4.584;2023-05-01T16:38:35;12.73;;;11.32;;
37781;SDS011;23621;50.878;4.584;2023-05-01T16:41:23;13.95;;;12.55;;
37781;SDS011;23621;50.878;4.584;2023-05-01T16:44:11;14.63;;;13.15;;
37781;SDS011;23621;50.878;4.584;2023-05-01T16:46:58;13.82;;;12.43;;
37781;SDS011;23621;50.878;4.584;2023-05-01T16:49:46;14.05;;;12.48;;
37781;SDS011;23621;50.878;4.584;2023-05-01T16:52:33;14.18;;;12.68;;
37781;SDS011;23621;50.878;4.584;2023-05-01T16:55:21;12.32;;;11.13;;
37781;SDS011;23621;50.878;4.584;2023-05-01T16:58:08;11.57;;;10.30;;
37781;SDS011;23621;50.878;4.584;2023-05-01T17:00:56;11.60;;;10.40;;
37781;SDS011;23621;50.878;4.584;2023-05-01T17:03:43;11.30;;;10.10;;
37781;SDS011;23621;50.878;4.584;2023-05-01T17:06:30;10.65;;;9.20;;
37781;SDS011;23621;50.878;4.584;2023-05-01T17:09:18;9.15;;;8.25;;
37781;SDS011;23621;50.878;4.584;2023-05-01T17:12:05;9.90;;;7.90;;
37781;SDS011;23621;50.878;4.584;2023-05-01T17:14:52;8.00;;;7.10;;
37781;SDS011;23621;50.878;4.584;2023-05-01T17:17:39;7.78;;;6.10;;